North Saint Paul, Minnesota
Current Conditions -  °F | °C
As of 12:53 AM on Thursday 23 Oct 2014 (Local Time) from KSTP Reporting Station
Scattered Clouds Scattered Clouds  
Wind Chill: 54°   Ceiling: Unl
Heat Index: 54°   Visibility: 10mi
Dew Point: 42°   Wind: 8mph
Humidity: 64%   Direction: 160°SSE
Pressure: 30.03"   Gusts: NA
Location:  45.0145°N, 93.0259°W
Report Text: KSTP 230553Z AUTO 16007KT 10SM SCT035 12/06 A3003 RMK AO2 SLP169 T01220056 10139 20122 401560044 56015
Loading
Personal Weather Stations






























Interactive Weather Map
Tropical Storm Tracking
New forecast layout! Learn more

10-Day Weather Forecast

Advertisements
Track Severe Weather on mobile